Time;durP1;ratioP1;P1;durP2;ratioP2;P2;SDS_P1;SDS_P2;PMS_P1;PMS_P2;Temp;Humidity;BMP_temperature;BMP_pressure;BME280_temperature;BME280_humidity;BME280_pressure;Samples;Min_cycle;Max_cycle;Signal;HPM_P1;HPM_P2
2022/02/20 00:01:33;;;;;;;3.80;2.00;;;;;;;;;;5042977;28;20435;-74
2022/02/20 00:03:59;;;;;;;3.70;1.60;;;;;;;;;;5043128;28;20413;-74
2022/02/20 00:06:28;;;;;;;4.00;2.00;;;;;;;;;;5045482;28;20471;-71
2022/02/20 00:08:54;;;;;;;12.10;3.07;;;;;;;;;;5046922;28;20939;-72
2022/02/20 00:11:21;;;;;;;5.57;1.67;;;;;;;;;;5047172;28;21219;-72
2022/02/20 00:13:47;;;;;;;3.10;1.47;;;;;;;;;;5047437;28;20428;-72
2022/02/20 00:16:13;;;;;;;5.13;2.23;;;;;;;;;;5047356;28;20415;-72
2022/02/20 00:18:39;;;;;;;4.07;1.37;;;;;;;;;;5047081;28;20431;-72
2022/02/20 00:21:05;;;;;;;4.93;2.03;;;;;;;;;;5047082;28;20838;-72
2022/02/20 00:23:31;;;;;;;5.90;2.17;;;;;;;;;;5046592;28;20433;-75
2022/02/20 00:25:57;;;;;;;4.90;2.07;;;;;;;;;;5046782;28;20420;-73
2022/02/20 00:28:23;;;;;;;4.77;2.33;;;;;;;;;;5046601;28;20571;-74
2022/02/20 00:30:50;;;;;;;4.43;1.73;;;;;;;;;;5046567;28;20845;-71
2022/02/20 00:33:16;;;;;;;5.20;1.90;;;;;;;;;;5045921;28;20448;-73
2022/02/20 00:35:42;;;;;;;6.30;1.90;;;;;;;;;;5046918;28;20477;-72
2022/02/20 00:38:08;;;;;;;4.00;1.67;;;;;;;;;;5046283;28;20415;-72
2022/02/20 00:40:34;;;;;;;5.47;2.13;;;;;;;;;;5046421;28;20416;-72
2022/02/20 00:43:01;;;;;;;9.50;2.00;;;;;;;;;;5046456;28;20440;-72
2022/02/20 00:45:27;;;;;;;3.80;1.33;;;;;;;;;;5045568;28;20421;-74
2022/02/20 00:47:53;;;;;;;3.73;1.53;;;;;;;;;;5046458;28;20460;-72
2022/02/20 00:50:19;;;;;;;5.03;1.93;;;;;;;;;;5046523;28;20420;-72
2022/02/20 00:52:45;;;;;;;4.57;2.30;;;;;;;;;;5076279;22;20484;-71
2022/02/20 00:55:12;;;;;;;4.87;2.00;;;;;;;;;;5065167;28;20397;-69
2022/02/20 00:57:38;;;;;;;4.77;2.50;;;;;;;;;;5045523;28;20412;-68
2022/02/20 01:00:05;;;;;;;5.80;2.03;;;;;;;;;;5050293;28;20446;-71
2022/02/20 01:02:32;;;;;;;4.00;1.63;;;;;;;;;;5059501;28;20438;-69
2022/02/20 01:04:58;;;;;;;3.00;1.80;;;;;;;;;;5051584;28;20417;-68
2022/02/20 01:07:24;;;;;;;6.93;1.90;;;;;;;;;;5051916;28;20540;-67
2022/02/20 01:09:50;;;;;;;6.83;2.83;;;;;;;;;;5029960;28;20474;-69
2022/02/20 01:12:16;;;;;;;6.00;2.17;;;;;;;;;;5028343;28;20431;-68
2022/02/20 01:14:43;;;;;;;4.47;2.33;;;;;;;;;;5045730;28;20401;-69
2022/02/20 01:17:09;;;;;;;5.83;2.90;;;;;;;;;;5046385;28;20417;-68
2022/02/20 01:19:35;;;;;;;6.30;3.10;;;;;;;;;;5040322;28;20431;-69
2022/02/20 01:22:01;;;;;;;3.83;2.10;;;;;;;;;;5054591;28;20416;-67
2022/02/20 01:24:27;;;;;;;5.23;1.90;;;;;;;;;;5048988;28;20496;-71
2022/02/20 01:26:53;;;;;;;3.17;2.10;;;;;;;;;;5045659;28;20503;-70
2022/02/20 01:29:19;;;;;;;4.03;2.67;;;;;;;;;;5049674;28;20427;-67
2022/02/20 01:31:45;;;;;;;5.23;3.23;;;;;;;;;;5041390;28;20416;-69
2022/02/20 01:34:11;;;;;;;3.57;1.90;;;;;;;;;;5055809;28;20416;-68
2022/02/20 01:36:37;;;;;;;3.90;1.80;;;;;;;;;;5051204;28;20408;-71
2022/02/20 01:39:03;;;;;;;3.67;1.70;;;;;;;;;;5060516;28;20756;-67
2022/02/20 01:41:29;;;;;;;6.77;3.07;;;;;;;;;;5058319;28;20499;-70
2022/02/20 01:43:55;;;;;;;7.07;2.27;;;;;;;;;;5057190;28;20500;-69
2022/02/20 01:46:22;;;;;;;4.20;1.77;;;;;;;;;;5064552;28;20515;-71
2022/02/20 01:48:48;;;;;;;3.67;1.80;;;;;;;;;;5059609;28;20839;-69
2022/02/20 01:51:14;;;;;;;7.13;2.80;;;;;;;;;;5037833;28;20936;-71
2022/02/20 01:53:41;;;;;;;4.63;1.50;;;;;;;;;;5047203;28;20445;-70
2022/02/20 01:56:07;;;;;;;5.27;2.60;;;;;;;;;;5055803;28;20791;-69
2022/02/20 01:58:33;;;;;;;5.30;1.90;;;;;;;;;;5047483;28;20888;-72
2022/02/20 02:01:00;;;;;;;3.47;1.60;;;;;;;;;;5047735;28;20416;-70
2022/02/20 02:03:26;;;;;;;3.20;2.27;;;;;;;;;;5037688;28;20444;-69
2022/02/20 02:05:52;;;;;;;7.63;2.10;;;;;;;;;;5054819;28;20422;-72
2022/02/20 02:08:19;;;;;;;5.90;2.07;;;;;;;;;;5053494;28;20853;-70
2022/02/20 02:10:46;;;;;;;4.10;1.70;;;;;;;;;;5050188;28;20406;-69
2022/02/20 02:13:12;;;;;;;5.27;2.10;;;;;;;;;;5050703;28;20428;-72
2022/02/20 02:15:51;;;;;;;2.87;1.50;;;;;;;;;;5031055;28;20408;-70
2022/02/20 02:18:18;;;;;;;5.40;2.37;;;;;;;;;;5031600;28;20427;-70
2022/02/20 02:20:44;;;;;;;10.90;2.10;;;;;;;;;;5054206;28;20408;-68
2022/02/20 02:23:11;;;;;;;5.00;1.70;;;;;;;;;;5053550;28;20432;-69
2022/02/20 02:25:37;;;;;;;6.33;1.43;;;;;;;;;;5046438;28;20417;-68
2022/02/20 02:28:03;;;;;;;2.90;1.33;;;;;;;;;;5055888;28;20462;-70
2022/02/20 02:30:29;;;;;;;4.13;1.73;;;;;;;;;;5052533;28;20912;-69
2022/02/20 02:32:55;;;;;;;5.20;1.90;;;;;;;;;;5026481;28;20549;-72
2022/02/20 02:35:22;;;;;;;4.00;1.57;;;;;;;;;;5064159;28;20491;-70
2022/02/20 02:37:48;;;;;;;4.60;2.00;;;;;;;;;;5058907;28;20507;-69
2022/02/20 02:40:14;;;;;;;5.77;1.40;;;;;;;;;;5054046;28;20416;-70
2022/02/20 02:42:40;;;;;;;2.83;1.47;;;;;;;;;;5048692;28;20435;-70
2022/02/20 02:45:06;;;;;;;4.73;2.07;;;;;;;;;;5048666;28;20429;-72
2022/02/20 02:47:32;;;;;;;4.23;1.40;;;;;;;;;;5053433;28;20455;-70
2022/02/20 02:49:58;;;;;;;2.33;1.13;;;;;;;;;;5057081;28;20425;-69
2022/02/20 02:52:24;;;;;;;5.43;1.60;;;;;;;;;;5047726;28;20448;-72
2022/02/20 02:54:50;;;;;;;3.43;1.80;;;;;;;;;;5047048;28;20497;-70
2022/02/20 02:57:16;;;;;;;7.10;1.60;;;;;;;;;;5048903;28;20470;-70
2022/02/20 02:59:42;;;;;;;3.00;1.33;;;;;;;;;;5055696;28;20442;-69
2022/02/20 03:02:08;;;;;;;3.10;1.80;;;;;;;;;;5052124;28;20438;-69
2022/02/20 03:04:35;;;;;;;5.50;1.67;;;;;;;;;;5060142;28;20408;-69
2022/02/20 03:07:01;;;;;;;4.10;1.40;;;;;;;;;;5050525;28;20462;-68
2022/02/20 03:09:28;;;;;;;3.60;1.80;;;;;;;;;;5064132;28;20797;-68
2022/02/20 03:11:54;;;;;;;3.30;1.50;;;;;;;;;;5058129;28;20410;-69
2022/02/20 03:14:20;;;;;;;3.40;1.37;;;;;;;;;;5040344;28;20466;-70
2022/02/20 03:16:47;;;;;;;8.63;2.20;;;;;;;;;;5053656;28;20413;-69
2022/02/20 03:19:13;;;;;;;3.73;1.57;;;;;;;;;;5055651;28;20424;-68
2022/02/20 03:21:39;;;;;;;3.70;1.27;;;;;;;;;;5059457;28;20644;-72
2022/02/20 03:24:05;;;;;;;1.40;1.10;;;;;;;;;;5063237;28;20585;-71
2022/02/20 03:26:31;;;;;;;5.00;1.60;;;;;;;;;;5058861;28;20535;-69
2022/02/20 03:28:57;;;;;;;3.13;1.17;;;;;;;;;;5048773;28;20411;-67
2022/02/20 03:31:24;;;;;;;4.40;1.10;;;;;;;;;;5056241;28;20953;-68
2022/02/20 03:33:50;;;;;;;7.90;1.77;;;;;;;;;;5049548;28;20950;-70
2022/02/20 03:36:16;;;;;;;4.70;1.20;;;;;;;;;;5058241;28;20432;-70
2022/02/20 03:38:42;;;;;;;2.80;1.10;;;;;;;;;;5061959;28;20807;-71
2022/02/20 03:41:09;;;;;;;3.90;1.43;;;;;;;;;;5057602;28;20901;-69
2022/02/20 03:43:35;;;;;;;1.63;1.03;;;;;;;;;;5052409;28;20514;-69
2022/02/20 03:46:02;;;;;;;3.03;1.20;;;;;;;;;;5056399;28;20408;-70
2022/02/20 03:48:28;;;;;;;2.53;1.43;;;;;;;;;;5057668;28;20463;-70
2022/02/20 03:50:54;;;;;;;3.60;1.60;;;;;;;;;;5067079;28;20750;-69
2022/02/20 03:53:20;;;;;;;3.83;1.03;;;;;;;;;;5040064;28;20473;-69
2022/02/20 03:55:46;;;;;;;3.33;1.40;;;;;;;;;;5046945;28;20412;-68
2022/02/20 03:58:12;;;;;;;3.60;1.40;;;;;;;;;;5059896;28;20417;-70
2022/02/20 04:00:38;;;;;;;3.57;1.27;;;;;;;;;;5051209;28;21005;-68
2022/02/20 04:03:04;;;;;;;2.10;1.10;;;;;;;;;;5057482;28;20433;-68
2022/02/20 04:05:30;;;;;;;2.10;1.30;;;;;;;;;;5040733;28;20451;-68
2022/02/20 04:07:56;;;;;;;2.30;1.00;;;;;;;;;;5063058;28;20567;-69
2022/02/20 04:10:22;;;;;;;1.10;1.00;;;;;;;;;;5038436;28;20421;-69
2022/02/20 04:12:49;;;;;;;2.13;1.10;;;;;;;;;;5047263;28;20468;-69
2022/02/20 04:15:16;;;;;;;1.27;0.90;;;;;;;;;;5034815;28;20421;-71
2022/02/20 04:17:42;;;;;;;2.80;1.00;;;;;;;;;;5058026;28;20817;-70
2022/02/20 04:20:09;;;;;;;1.97;0.90;;;;;;;;;;5055049;28;20442;-68
2022/02/20 04:22:36;;;;;;;2.03;1.20;;;;;;;;;;5053144;28;20432;-68
2022/02/20 04:25:03;;;;;;;3.03;1.00;;;;;;;;;;5053142;28;20784;-69
2022/02/20 04:27:28;;;;;;;3.63;0.97;;;;;;;;;;5061544;28;20463;-70
2022/02/20 04:29:54;;;;;;;2.40;0.80;;;6.90;99.90;;;;;;5058247;28;20413;-68
2022/02/20 04:32:20;;;;;;;5.23;0.80;;;7.00;99.90;;;;;;5039828;28;20515;-68
2022/02/20 04:34:45;;;;;;;1.47;0.87;;;6.90;99.90;;;;;;5043591;28;20175;-69
2022/02/20 04:37:11;;;;;;;3.03;1.73;;;6.90;99.90;;;;;;5060373;28;20186;-68
2022/02/20 04:39:36;;;;;;;1.70;1.30;;;7.00;99.90;;;;;;5060599;28;20308;-69
2022/02/20 04:42:02;;;;;;;2.33;0.93;;;7.10;99.90;;;;;;5051760;28;20186;-69
2022/02/20 04:44:28;;;;;;;1.60;0.90;;;7.20;99.90;;;;;;5053318;28;20183;-69
2022/02/20 04:46:53;;;;;;;1.40;0.87;;;7.20;99.90;;;;;;5057306;28;20201;-72
2022/02/20 04:49:19;;;;;;;2.40;1.07;;;7.20;99.90;;;;;;5054476;28;20553;-72
2022/02/20 04:51:45;;;;;;;2.07;0.90;;;7.10;99.90;;;;;;5048296;28;20628;-70
2022/02/20 04:54:10;;;;;;;2.90;1.20;;;7.10;99.90;;;;;;5049823;28;20209;-68
2022/02/20 04:56:36;;;;;;;3.03;1.27;;;7.10;99.90;;;;;;5063618;28;20188;-69
2022/02/20 04:59:02;;;;;;;1.40;0.90;;;7.20;99.90;;;;;;5058113;28;20662;-70
2022/02/20 05:01:27;;;;;;;2.70;1.33;;;7.20;99.90;;;;;;5052240;28;20273;-69
2022/02/20 05:03:53;;;;;;;2.03;1.07;;;7.10;99.90;;;;;;5043791;28;20233;-68
2022/02/20 05:06:19;;;;;;;2.80;1.53;;;7.10;99.90;;;;;;5059177;28;20215;-69
2022/02/20 05:08:45;;;;;;;3.10;1.07;;;6.90;99.90;;;;;;5060806;28;20574;-68
2022/02/20 05:11:11;;;;;;;4.60;2.17;;;7.10;99.90;;;;;;5057909;28;20406;-72
2022/02/20 05:13:37;;;;;;;2.60;1.20;;;7.10;99.90;;;;;;5053832;28;20460;-73
2022/02/20 05:16:03;;;;;;;3.83;1.57;;;7.10;99.90;;;;;;5066058;28;20409;-69
2022/02/20 05:18:29;;;;;;;1.90;1.60;;;7.00;99.90;;;;;;5059848;28;20187;-70
2022/02/20 05:20:54;;;;;;;4.40;1.53;;;6.80;99.90;;;;;;5054739;28;20432;-72
2022/02/20 05:23:24;;;;;;;1.63;0.97;;;6.70;99.90;;;;;;5045858;28;20307;-69
2022/02/20 05:25:51;;;;;;;2.70;1.30;;;6.80;99.90;;;;;;5059830;28;20421;-69
2022/02/20 05:28:17;;;;;;;1.80;1.27;;;6.80;99.90;;;;;;5047659;28;20571;-67
2022/02/20 05:30:43;;;;;;;4.00;1.60;;;7.00;99.90;;;;;;5045563;28;20413;-70
2022/02/20 05:33:09;;;;;;;1.50;1.10;;;6.90;99.90;;;;;;5052148;28;20460;-73
2022/02/20 05:35:35;;;;;;;2.30;1.97;;;6.90;99.90;;;;;;5061470;28;20773;-69
2022/02/20 05:38:00;;;;;;;2.73;2.23;;;6.90;99.90;;;;;;5061887;28;20189;-70
2022/02/20 05:40:26;;;;;;;4.03;1.87;;;6.70;99.90;;;;;;5061529;28;20549;-68
2022/02/20 05:42:57;;;;;;;5.77;1.70;;;6.60;99.90;;;;;;5041392;28;20207;-70
2022/02/20 05:45:23;;;;;;;5.10;2.13;;;6.70;99.90;;;;;;5046144;28;20174;-70
2022/02/20 05:47:49;;;;;;;2.70;1.40;;;6.60;99.90;;;;;;5053889;28;20460;-70
2022/02/20 05:50:15;;;;;;;3.47;1.70;;;6.70;99.90;;;;;;5056493;28;20430;-73
2022/02/20 05:52:40;;;;;;;2.83;1.50;;;6.60;99.90;;;;;;5032604;28;20428;-70
2022/02/20 05:55:07;;;;;;;2.07;0.90;;;6.80;99.90;;;;;;5058716;28;20179;-70
2022/02/20 05:57:49;;;;;;;4.60;1.07;;;6.70;99.90;;;;;;5047398;28;20207;-71
2022/02/20 06:00:17;;;;;;;3.33;1.37;;;6.70;99.90;;;;;;5045456;28;20405;-68
2022/02/20 06:02:43;;;;;;;7.20;2.93;;;6.70;99.90;;;;;;5059525;28;20543;-71
2022/02/20 06:05:09;;;;;;;3.80;1.30;;;6.70;99.90;;;;;;5029044;28;20529;-70
2022/02/20 06:07:35;;;;;;;3.30;1.73;;;6.80;99.90;;;;;;5057070;28;20252;-70
2022/02/20 06:10:01;;;;;;;2.00;1.07;;;6.90;99.90;;;;;;5054403;28;20422;-72
2022/02/20 06:12:27;;;;;;;4.23;1.20;;;7.00;99.90;;;;;;5057188;28;20208;-70
2022/02/20 06:14:53;;;;;;;2.27;1.33;;;6.90;99.90;;;;;;5050527;28;20416;-70
2022/02/20 06:17:18;;;;;;;1.17;0.87;;;6.90;99.90;;;;;;5039585;28;20425;-69
2022/02/20 06:19:44;;;;;;;2.63;1.10;;;7.00;99.90;;;;;;5057399;28;20666;-70
2022/02/20 06:22:09;;;;;;;1.90;1.20;;;7.10;99.90;;;;;;5034392;28;20211;-69
2022/02/20 06:24:35;;;;;;;2.80;1.30;;;7.20;99.90;;;;;;5058443;28;20945;-70
2022/02/20 06:27:01;;;;;;;2.40;1.57;;;7.10;99.90;;;;;;5053149;28;20201;-71
2022/02/20 06:29:26;;;;;;;2.60;1.50;;;6.90;99.90;;;;;;5055127;28;20205;-70
2022/02/20 06:31:52;;;;;;;3.47;1.17;;;6.80;99.90;;;;;;5053576;28;20217;-68
2022/02/20 06:34:17;;;;;;;1.70;1.30;;;7.10;99.90;;;;;;5053919;28;20696;-73
2022/02/20 06:36:43;;;;;;;3.43;1.37;;;7.20;99.90;;;;;;5053878;28;20212;-69
2022/02/20 06:39:12;;;;;;;3.07;1.30;;;7.20;99.90;;;;;;5057503;28;20176;-70
2022/02/20 06:41:38;;;;;;;4.70;2.03;;;7.30;99.90;;;;;;5051802;28;20426;-69
2022/02/20 06:44:05;;;;;;;3.13;2.00;;;7.10;99.90;;;;;;5060667;28;20486;-69
2022/02/20 06:46:31;;;;;;;2.50;1.20;;;7.00;99.90;;;;;;5055200;28;20257;-70
2022/02/20 06:48:56;;;;;;;2.60;1.30;;;7.20;99.90;;;;;;5052169;28;20469;-70
2022/02/20 06:51:22;;;;;;;1.60;1.23;;;7.20;99.90;;;;;;5058114;28;20429;-70
2022/02/20 06:53:48;;;;;;;1.20;0.80;;;7.30;99.90;;;;;;5083076;22;20321;-72
2022/02/20 06:56:14;;;;;;;1.43;0.90;;;7.20;99.90;;;;;;5047382;28;20622;-72
2022/02/20 06:58:40;;;;;;;1.43;1.00;;;7.30;99.90;;;;;;5046365;28;20459;-74
2022/02/20 07:01:06;;;;;;;1.43;1.10;;;7.40;99.90;;;;;;5063925;28;20491;-71
2022/02/20 07:03:32;;;;;;;4.87;2.30;;;7.60;99.90;;;;;;5063355;28;20516;-72
2022/02/20 07:05:58;;;;;;;2.30;1.70;;;7.40;99.90;;;;;;5055235;28;20248;-71
2022/02/20 07:08:24;;;;;;;2.00;1.40;;;7.50;99.90;;;;;;5060718;28;20800;-71
2022/02/20 07:10:49;;;;;;;2.30;1.60;;;7.50;99.90;;;;;;5063221;28;20417;-72
2022/02/20 07:13:15;;;;;;;2.93;1.50;;;7.60;99.90;;;;;;5045473;28;20236;-72
2022/02/20 07:15:41;;;;;;;32.37;19.57;;;7.50;99.90;;;;;;5062862;28;20581;-72
2022/02/20 07:18:07;;;;;;;6.40;4.70;;;7.50;99.90;;;;;;5063090;28;20175;-72
2022/02/20 07:20:33;;;;;;;8.90;7.33;;;7.50;99.90;;;;;;5053860;28;20653;-71
2022/02/20 07:22:59;;;;;;;1.30;1.10;;;7.60;99.90;;;;;;5063595;28;20437;-71
2022/02/20 07:25:25;;;;;;;1.03;1.00;;;7.50;99.90;;;;;;5062831;28;20406;-71
2022/02/20 07:27:54;;;;;;;1.67;1.00;;;7.70;99.90;;;;;;5063408;28;20285;-71
2022/02/20 07:30:22;;;;;;;1.23;0.70;;;7.60;99.90;;;;;;5045726;28;20453;-71
2022/02/20 07:32:47;;;;;;;1.07;0.63;;;7.50;99.90;;;;;;5061754;28;20896;-71
2022/02/20 07:35:14;;;;;;;8.43;7.60;;;7.60;99.90;;;;;;5043048;28;20501;-73
2022/02/20 07:37:40;;;;;;;4.37;3.10;;;7.70;99.90;;;;;;5025503;28;20187;-70
2022/02/20 07:40:11;;;;;;;0.80;0.70;;;7.50;99.90;;;;;;5042975;28;20409;-70
2022/02/20 07:42:37;;;;;;;2.90;2.70;;;7.40;99.90;;;;;;5045155;28;20432;-72
2022/02/20 07:45:03;;;;;;;2.50;2.30;;;7.50;99.90;;;;;;5025397;28;20430;-71
2022/02/20 07:47:29;;;;;;;3.73;3.43;;;7.70;99.90;;;;;;5043118;28;20204;-72
2022/02/20 07:49:54;;;;;;;1.20;0.90;;;7.70;99.90;;;;;;5042953;28;20803;-72
2022/02/20 07:52:21;;;;;;;2.17;1.13;;;7.70;99.90;;;;;;5045551;28;20637;-73
2022/02/20 07:54:46;;;;;;;1.93;1.00;;;7.70;99.90;;;;;;5042881;28;20185;-72
2022/02/20 07:57:12;;;;;;;1.00;0.80;;;7.80;99.90;;;;;;5043273;28;20414;-71
2022/02/20 07:59:38;;;;;;;0.90;0.70;;;7.70;99.90;;;;;;5042299;28;20180;-71
2022/02/20 08:02:04;;;;;;;1.70;1.20;;;7.70;99.90;;;;;;5043124;28;20203;-73
2022/02/20 08:04:30;;;;;;;1.30;0.80;;;7.80;99.90;;;;;;5042621;28;20745;-72
2022/02/20 08:06:56;;;;;;;0.90;0.80;;;7.90;99.90;;;;;;5025301;28;20461;-72
2022/02/20 08:09:21;;;;;;;1.10;1.00;;;8.00;99.90;;;;;;5042644;28;20430;-72
2022/02/20 08:11:47;;;;;;;2.13;1.00;;;8.10;99.90;;;;;;5043055;28;20183;-72
2022/02/20 08:14:13;;;;;;;1.73;1.07;;;8.20;99.90;;;;;;5043209;28;20246;-72
2022/02/20 08:16:38;;;;;;;1.93;0.90;;;8.30;99.90;;;;;;5042857;28;20760;-72
2022/02/20 08:19:04;;;;;;;2.10;0.90;;;8.50;99.90;;;;;;5042682;28;20181;-72
2022/02/20 08:21:29;;;;;;;1.37;0.70;;;8.50;99.90;;;;;;5042966;28;20181;-71
2022/02/20 08:23:55;;;;;;;2.40;1.07;;;8.30;99.90;;;;;;5062570;28;20677;-71
2022/02/20 08:26:22;;;;;;;1.20;0.70;;;8.30;99.90;;;;;;5063225;28;20261;-74
2022/02/20 08:28:48;;;;;;;1.60;1.20;;;8.30;99.90;;;;;;5036385;28;20343;-72
2022/02/20 08:31:13;;;;;;;0.97;0.77;;;8.30;99.90;;;;;;5046918;28;20419;-72
2022/02/20 08:33:39;;;;;;;1.23;0.90;;;8.50;99.90;;;;;;5051125;28;20505;-72
2022/02/20 08:36:05;;;;;;;1.37;0.70;;;8.60;99.90;;;;;;5046233;28;20170;-73
2022/02/20 08:38:31;;;;;;;1.50;1.10;;;8.60;99.90;;;;;;5046631;28;20228;-71
2022/02/20 08:40:56;;;;;;;1.60;0.87;;;8.40;99.90;;;;;;5032342;28;20218;-72
2022/02/20 08:43:22;;;;;;;1.10;0.80;;;8.50;99.90;;;;;;5042396;28;20244;-72
2022/02/20 08:45:48;;;;;;;1.47;0.90;;;8.70;99.90;;;;;;5065882;28;20184;-72
2022/02/20 08:48:16;;;;;;;1.90;0.80;;;8.90;99.90;;;;;;5057631;28;20217;-72
2022/02/20 08:50:43;;;;;;;1.43;0.70;;;8.70;99.90;;;;;;5065927;28;20415;-72
2022/02/20 08:53:11;;;;;;;3.37;0.90;;;8.70;99.90;;;;;;5065865;28;20966;-72
2022/02/20 08:55:38;;;;;;;3.13;1.03;;;8.60;99.90;;;;;;5049208;28;20409;-71
2022/02/20 08:58:04;;;;;;;1.50;0.80;;;8.70;99.90;;;;;;5027902;28;20419;-72
2022/02/20 09:00:30;;;;;;;2.53;1.00;;;8.90;99.90;;;;;;5053498;28;20434;-72
2022/02/20 09:02:56;;;;;;;1.90;0.80;;;9.20;99.90;;;;;;5042933;28;20447;-73
2022/02/20 09:05:21;;;;;;;2.00;1.00;;;9.50;99.90;;;;;;5056173;28;20931;-72
2022/02/20 09:07:47;;;;;;;1.00;0.87;;;9.60;99.90;;;;;;5058317;28;20204;-71
2022/02/20 09:10:13;;;;;;;1.33;0.70;;;9.80;99.90;;;;;;5049164;28;20648;-71
2022/02/20 09:12:39;;;;;;;1.13;0.93;;;9.90;99.90;;;;;;5054462;28;20563;-72
2022/02/20 09:15:07;;;;;;;1.63;1.00;;;9.70;99.90;;;;;;5043492;28;20900;-70
2022/02/20 09:17:32;;;;;;;1.80;1.10;;;9.50;99.90;;;;;;5063543;28;20411;-72
2022/02/20 09:19:59;;;;;;;1.43;0.80;;;9.70;99.90;;;;;;5065257;28;20408;-72
2022/02/20 09:22:25;;;;;;;1.50;0.87;;;9.70;99.90;;;;;;5065395;28;20189;-72
2022/02/20 09:24:51;;;;;;;1.73;0.73;;;9.60;99.90;;;;;;5028944;28;20425;-72
2022/02/20 09:27:17;;;;;;;1.10;0.60;;;9.80;99.90;;;;;;5045266;28;20452;-72
2022/02/20 09:29:43;;;;;;;1.30;0.60;;;9.80;99.90;;;;;;5045263;28;20182;-71
2022/02/20 09:32:08;;;;;;;1.17;0.83;;;10.20;99.90;;;;;;5056528;28;20410;-69
2022/02/20 09:34:34;;;;;;;1.50;0.73;;;10.10;99.90;;;;;;5052996;28;20257;-71
2022/02/20 09:37:00;;;;;;;2.57;0.80;;;10.00;99.90;;;;;;5064260;28;20191;-70
2022/02/20 09:39:26;;;;;;;1.13;0.70;;;10.10;99.90;;;;;;5063857;28;20185;-69
2022/02/20 09:41:51;;;;;;;4.30;1.37;;;10.30;99.90;;;;;;5064952;28;20321;-70
2022/02/20 09:44:17;;;;;;;0.97;0.70;;;10.50;99.90;;;;;;5061106;28;21346;-70
2022/02/20 09:46:45;;;;;;;1.83;0.83;;;10.60;99.90;;;;;;5049277;28;20178;-71
2022/02/20 09:49:12;;;;;;;1.40;0.70;;;10.70;99.90;;;;;;5044932;28;20379;-70
2022/02/20 09:51:38;;;;;;;2.63;0.80;;;10.40;99.90;;;;;;5045194;28;20405;-71
2022/02/20 09:54:04;;;;;;;0.90;0.67;;;10.10;99.90;;;;;;5044456;28;20487;-70
2022/02/20 09:56:31;;;;;;;1.10;0.60;;;10.10;99.90;;;;;;5044739;28;20183;-70
2022/02/20 09:58:57;;;;;;;3.20;0.70;;;10.40;99.90;;;;;;5044782;28;20758;-70
2022/02/20 10:01:23;;;;;;;1.57;0.80;;;10.40;99.90;;;;;;5044828;28;20496;-71
2022/02/20 10:03:49;;;;;;;1.10;0.90;;;10.50;99.90;;;;;;5057361;28;20522;-71
2022/02/20 10:06:21;;;;;;;0.70;0.50;;;10.50;99.90;;;;;;5044469;28;20259;-71
2022/02/20 10:08:51;;;;;;;0.90;0.67;;;10.30;99.90;;;;;;5044699;28;20543;-70
2022/02/20 10:11:21;;;;;;;1.30;0.60;;;10.30;99.90;;;;;;5026590;28;20400;-69
2022/02/20 10:13:50;;;;;;;1.73;0.70;;;10.20;99.90;;;;;;5044322;28;20434;-70
2022/02/20 10:16:26;;;;;;;1.13;0.80;;;10.20;99.90;;;;;;5044501;28;20414;-70
2022/02/20 10:18:53;;;;;;;1.10;0.60;;;10.20;99.90;;;;;;5056449;28;20429;-73
2022/02/20 10:21:22;;;;;;;2.00;0.87;;;10.00;99.90;;;;;;5064484;28;20418;-71
2022/02/20 10:23:48;;;;;;;1.30;0.60;;;10.20;99.90;;;;;;5064284;28;20431;-71
2022/02/20 10:26:19;;;;;;;1.40;0.70;;;10.10;99.90;;;;;;5063783;28;20470;-70
2022/02/20 10:29:09;;;;;;;0.80;0.60;;;10.10;99.90;;;;;;5062306;28;20454;-70
2022/02/20 10:31:44;;;;;;;1.43;0.80;;;10.10;99.90;;;;;;5045302;28;20400;-70
2022/02/20 10:34:17;;;;;;;1.73;0.90;;;10.20;99.90;;;;;;5043526;28;20432;-71
2022/02/20 10:37:05;;;;;;;0.93;0.83;;;10.60;99.90;;;;;;5054156;28;20757;-71
2022/02/20 10:39:36;;;;;;;2.00;0.73;;;10.60;99.90;;;;;;5058137;28;20504;-72
2022/02/20 10:42:20;;;;;;;0.77;0.60;;;10.70;99.90;;;;;;5044233;28;21002;-72
2022/02/20 10:44:59;;;;;;;1.23;0.90;;;10.80;99.90;;;;;;5058623;28;20494;-71
2022/02/20 10:47:24;;;;;;;1.77;0.70;;;10.90;99.90;;;;;;5049582;28;20463;-73
2022/02/20 10:49:51;;;;;;;1.23;0.60;;;10.90;99.90;;;;;;5063420;28;20461;-70
2022/02/20 10:52:32;;;;;;;1.43;0.80;;;11.00;99.90;;;;;;5048800;28;20706;-70
2022/02/20 10:55:05;;;;;;;1.77;0.70;;;11.00;99.90;;;;;;5063290;28;20502;-71
2022/02/20 10:57:35;;;;;;;2.40;0.80;;;11.20;99.90;;;;;;5063584;28;20924;-70
2022/02/20 11:00:16;;;;;;;0.70;0.60;;;11.00;99.90;;;;;;5063557;28;20415;-70
2022/02/20 11:02:43;;;;;;;1.23;0.90;;;11.10;99.90;;;;;;5063534;28;20854;-71
2022/02/20 11:05:13;;;;;;;1.53;0.57;;;11.00;99.90;;;;;;5056776;28;20771;-70
2022/02/20 11:07:39;;;;;;;0.90;0.60;;;11.10;99.90;;;;;;5063313;28;20881;-68
2022/02/20 11:10:07;;;;;;;1.40;0.93;;;11.30;99.90;;;;;;5063247;28;20986;-68
2022/02/20 11:12:36;;;;;;;1.80;0.57;;;11.30;99.90;;;;;;5063362;28;20772;-67
2022/02/20 11:15:03;;;;;;;1.57;0.93;;;11.30;99.90;;;;;;5060791;28;20949;-68
2022/02/20 11:17:30;;;;;;;1.10;0.70;;;11.30;99.90;;;;;;5043596;28;20799;-68
2022/02/20 11:19:58;;;;;;;1.33;0.60;;;11.20;99.90;;;;;;5043325;28;20422;-68
2022/02/20 11:22:29;;;;;;;1.77;0.60;;;11.20;99.90;;;;;;5043289;28;20452;-69
2022/02/20 11:24:58;;;;;;;0.80;0.57;;;11.00;99.90;;;;;;5043219;28;20499;-69
2022/02/20 11:27:24;;;;;;;1.40;1.20;;;11.00;99.90;;;;;;5043337;28;20861;-69
2022/02/20 11:29:50;;;;;;;1.30;1.00;;;11.10;99.90;;;;;;5042997;28;20428;-70
2022/02/20 11:32:16;;;;;;;1.07;0.80;;;11.10;99.90;;;;;;5045059;28;20468;-67
2022/02/20 11:34:43;;;;;;;1.10;0.60;;;11.40;99.90;;;;;;5047349;28;20420;-69
2022/02/20 11:37:10;;;;;;;0.90;0.80;;;11.60;99.90;;;;;;5025478;28;20501;-69
2022/02/20 11:39:36;;;;;;;1.23;0.60;;;11.60;99.90;;;;;;5042834;28;20416;-69
2022/02/20 11:42:15;;;;;;;2.60;0.73;;;11.50;99.90;;;;;;5043906;28;20894;-68
2022/02/20 11:44:52;;;;;;;0.90;0.60;;;11.20;99.90;;;;;;5043573;28;20401;-69
2022/02/20 11:47:40;;;;;;;1.50;0.70;;;11.10;99.90;;;;;;5043275;28;20537;-70
2022/02/20 11:50:15;;;;;;;1.90;0.80;;;11.20;99.90;;;;;;5043213;28;20791;-69
2022/02/20 11:52:55;;;;;;;1.23;0.70;;;11.00;99.90;;;;;;5043384;28;20498;-68
2022/02/20 11:55:29;;;;;;;2.20;0.80;;;11.10;99.90;;;;;;5043155;28;20408;-69
2022/02/20 11:58:30;;;;;;;1.90;0.87;;;11.10;99.90;;;;;;5043104;28;20812;-70
2022/02/20 12:00:56;;;;;;;0.80;0.70;;;11.10;99.90;;;;;;5042785;28;20400;-69
2022/02/20 12:03:52;;;;;;;0.80;0.70;;;11.30;99.90;;;;;;5046841;28;20808;-70
2022/02/20 12:06:23;;;;;;;1.37;0.70;;;11.30;99.90;;;;;;5029502;28;20427;-71
2022/02/20 12:08:59;;;;;;;0.90;0.70;;;11.20;99.90;;;;;;5046912;28;20492;-69
2022/02/20 12:11:26;;;;;;;2.23;0.67;;;11.30;99.90;;;;;;5046487;28;20437;-67
2022/02/20 12:13:55;;;;;;;1.03;0.73;;;11.30;99.90;;;;;;5046441;28;21008;-70
2022/02/20 12:16:41;;;;;;;0.90;0.70;;;11.30;99.90;;;;;;5046558;28;20917;-71
2022/02/20 12:19:18;;;;;;;0.80;0.60;;;11.20;99.90;;;;;;5062021;28;20840;-68
2022/02/20 12:21:52;;;;;;;1.00;0.77;;;11.10;99.90;;;;;;5041062;28;20563;-71
2022/02/20 12:24:20;;;;;;;1.70;0.80;;;11.30;99.90;;;;;;5046662;28;21810;-70
2022/02/20 12:26:50;;;;;;;2.13;0.70;;;11.10;99.90;;;;;;5045862;28;20416;-69
2022/02/20 12:29:19;;;;;;;1.07;0.53;;;11.20;99.90;;;;;;5046644;28;20412;-69
2022/02/20 12:32:10;;;;;;;2.30;1.00;;;11.10;99.90;;;;;;5046836;28;20415;-69
2022/02/20 12:34:56;;;;;;;1.40;0.70;;;11.20;99.90;;;;;;5046692;28;20408;-69
2022/02/20 12:37:26;;;;;;;1.60;0.90;;;11.20;99.90;;;;;;5028965;28;20854;-69
2022/02/20 12:39:58;;;;;;;1.20;0.80;;;11.40;99.90;;;;;;5055998;28;20453;-70
2022/02/20 12:42:24;;;;;;;1.90;0.80;;;11.20;99.90;;;;;;5046224;28;20405;-70
2022/02/20 12:44:50;;;;;;;1.87;0.90;;;11.20;99.90;;;;;;5011683;28;20432;-70
2022/02/20 12:47:17;;;;;;;2.07;1.10;;;11.50;99.90;;;;;;5046136;28;20452;-70
2022/02/20 12:49:53;;;;;;;0.80;0.63;;;11.60;99.90;;;;;;5028695;28;20193;-68
2022/02/20 12:52:19;;;;;;;1.33;0.73;;;11.70;99.90;;;;;;5045752;28;20774;-69
2022/02/20 12:54:45;;;;;;;1.00;0.70;;;11.70;99.90;;;;;;5063134;22;20934;-69
2022/02/20 12:57:11;;;;;;;2.50;0.70;;;11.60;99.90;;;;;;5045987;28;20175;-69
2022/02/20 12:59:52;;;;;;;1.90;0.70;;;11.50;99.90;;;;;;5046161;28;20414;-69
2022/02/20 13:02:32;;;;;;;1.00;0.90;;;11.40;99.90;;;;;;5044955;28;21026;-70
2022/02/20 13:05:06;;;;;;;1.70;0.83;;;11.60;99.90;;;;;;5045851;28;20425;-68
2022/02/20 13:07:43;;;;;;;5.43;1.63;;;11.60;99.90;;;;;;5045208;28;20453;-69
2022/02/20 13:10:13;;;;;;;1.30;0.90;;;11.70;99.90;;;;;;5045532;28;20417;-69
2022/02/20 13:12:38;;;;;;;2.10;1.10;;;11.90;99.90;;;;;;5045433;28;20423;-68
2022/02/20 13:15:10;;;;;;;1.33;0.87;;;11.90;99.90;;;;;;5045748;28;20437;-69
2022/02/20 13:17:52;;;;;;;2.40;1.00;;;12.00;99.90;;;;;;5044404;28;20558;-69
2022/02/20 13:20:31;;;;;;;1.27;1.07;;;12.20;99.90;;;;;;5045649;28;20924;-69
2022/02/20 13:22:58;;;;;;;1.50;0.90;;;12.20;99.90;;;;;;5045498;28;20421;-68
2022/02/20 13:25:24;;;;;;;3.40;0.80;;;12.20;99.90;;;;;;5045440;28;20419;-69
2022/02/20 13:27:50;;;;;;;1.87;1.00;;;12.00;99.90;;;;;;5044977;28;21053;-69
2022/02/20 13:30:46;;;;;;;0.97;0.70;;;12.00;99.90;;;;;;5045215;28;20933;-68